sensor_id;sensor_type;location;lat;lon;timestamp;P1;durP1;ratioP1;P2;durP2;ratioP2
5052;SDS011;2545;50.892;5.740;2022-08-21T00:00:10;7.47;;;5.43;;
5052;SDS011;2545;50.892;5.740;2022-08-21T00:03:13;9.37;;;5.57;;
5052;SDS011;2545;50.892;5.740;2022-08-21T00:05:33;10.43;;;5.43;;
5052;SDS011;2545;50.892;5.740;2022-08-21T00:08:01;12.13;;;5.67;;
5052;SDS011;2545;50.892;5.740;2022-08-21T00:10:27;13.93;;;5.50;;
5052;SDS011;2545;50.892;5.740;2022-08-21T00:12:52;8.60;;;6.00;;
5052;SDS011;2545;50.892;5.740;2022-08-21T00:15:20;10.80;;;4.90;;
5052;SDS011;2545;50.892;5.740;2022-08-21T00:17:48;9.50;;;5.33;;
5052;SDS011;2545;50.892;5.740;2022-08-21T00:20:14;7.17;;;4.80;;
5052;SDS011;2545;50.892;5.740;2022-08-21T00:22:41;15.53;;;5.50;;
5052;SDS011;2545;50.892;5.740;2022-08-21T00:25:07;19.70;;;6.03;;
5052;SDS011;2545;50.892;5.740;2022-08-21T00:27:34;13.17;;;6.13;;
5052;SDS011;2545;50.892;5.740;2022-08-21T00:29:59;12.20;;;5.30;;
5052;SDS011;2545;50.892;5.740;2022-08-21T00:32:25;10.50;;;5.53;;
5052;SDS011;2545;50.892;5.740;2022-08-21T00:34:52;11.70;;;5.03;;
5052;SDS011;2545;50.892;5.740;2022-08-21T00:37:18;12.90;;;5.90;;
5052;SDS011;2545;50.892;5.740;2022-08-21T00:39:43;8.73;;;5.60;;
5052;SDS011;2545;50.892;5.740;2022-08-21T00:42:10;9.43;;;6.23;;
5052;SDS011;2545;50.892;5.740;2022-08-21T00:44:40;14.07;;;5.37;;
5052;SDS011;2545;50.892;5.740;2022-08-21T00:47:09;14.27;;;6.33;;
5052;SDS011;2545;50.892;5.740;2022-08-21T00:49:35;9.70;;;5.90;;
5052;SDS011;2545;50.892;5.740;2022-08-21T00:52:01;10.50;;;5.97;;
5052;SDS011;2545;50.892;5.740;2022-08-21T00:54:27;13.03;;;5.73;;
5052;SDS011;2545;50.892;5.740;2022-08-21T00:56:56;10.30;;;5.73;;
5052;SDS011;2545;50.892;5.740;2022-08-21T00:59:25;7.73;;;5.13;;
5052;SDS011;2545;50.892;5.740;2022-08-21T01:01:52;17.70;;;5.47;;
5052;SDS011;2545;50.892;5.740;2022-08-21T01:04:18;13.53;;;6.20;;
5052;SDS011;2545;50.892;5.740;2022-08-21T01:06:44;9.33;;;5.43;;
5052;SDS011;2545;50.892;5.740;2022-08-21T01:09:10;13.37;;;6.13;;
5052;SDS011;2545;50.892;5.740;2022-08-21T01:11:38;8.13;;;5.43;;
5052;SDS011;2545;50.892;5.740;2022-08-21T01:14:04;14.43;;;6.13;;
5052;SDS011;2545;50.892;5.740;2022-08-21T01:16:29;14.57;;;5.53;;
5052;SDS011;2545;50.892;5.740;2022-08-21T01:18:55;10.37;;;5.93;;
5052;SDS011;2545;50.892;5.740;2022-08-21T01:21:22;12.87;;;7.03;;
5052;SDS011;2545;50.892;5.740;2022-08-21T01:23:50;12.53;;;6.03;;
5052;SDS011;2545;50.892;5.740;2022-08-21T01:26:19;9.20;;;5.87;;
5052;SDS011;2545;50.892;5.740;2022-08-21T01:28:57;11.00;;;5.80;;
5052;SDS011;2545;50.892;5.740;2022-08-21T01:31:26;10.00;;;5.83;;
5052;SDS011;2545;50.892;5.740;2022-08-21T01:33:53;17.47;;;4.97;;
5052;SDS011;2545;50.892;5.740;2022-08-21T01:36:19;8.27;;;5.23;;
5052;SDS011;2545;50.892;5.740;2022-08-21T01:38:45;6.70;;;4.77;;
5052;SDS011;2545;50.892;5.740;2022-08-21T01:41:12;11.70;;;5.70;;
5052;SDS011;2545;50.892;5.740;2022-08-21T01:43:38;11.83;;;5.80;;
5052;SDS011;2545;50.892;5.740;2022-08-21T01:46:03;10.93;;;5.00;;
5052;SDS011;2545;50.892;5.740;2022-08-21T01:48:29;12.37;;;6.00;;
5052;SDS011;2545;50.892;5.740;2022-08-21T01:50:54;13.60;;;5.50;;
5052;SDS011;2545;50.892;5.740;2022-08-21T01:53:19;10.10;;;5.10;;
5052;SDS011;2545;50.892;5.740;2022-08-21T01:55:45;7.33;;;5.20;;
5052;SDS011;2545;50.892;5.740;2022-08-21T01:58:10;14.00;;;5.77;;
5052;SDS011;2545;50.892;5.740;2022-08-21T02:00:35;13.40;;;6.00;;
5052;SDS011;2545;50.892;5.740;2022-08-21T02:03:01;7.90;;;4.70;;
5052;SDS011;2545;50.892;5.740;2022-08-21T02:05:27;13.13;;;5.53;;
5052;SDS011;2545;50.892;5.740;2022-08-21T02:07:53;13.50;;;6.27;;
5052;SDS011;2545;50.892;5.740;2022-08-21T02:10:27;8.00;;;5.67;;
5052;SDS011;2545;50.892;5.740;2022-08-21T02:12:55;7.80;;;6.00;;
5052;SDS011;2545;50.892;5.740;2022-08-21T02:15:21;9.10;;;5.67;;
5052;SDS011;2545;50.892;5.740;2022-08-21T02:17:48;17.27;;;6.33;;
5052;SDS011;2545;50.892;5.740;2022-08-21T02:20:21;10.73;;;6.13;;
5052;SDS011;2545;50.892;5.740;2022-08-21T02:22:51;12.77;;;5.30;;
5052;SDS011;2545;50.892;5.740;2022-08-21T02:25:17;7.47;;;5.20;;
5052;SDS011;2545;50.892;5.740;2022-08-21T02:27:45;18.10;;;6.40;;
5052;SDS011;2545;50.892;5.740;2022-08-21T02:30:14;13.87;;;5.13;;
5052;SDS011;2545;50.892;5.740;2022-08-21T02:32:41;12.43;;;5.37;;
5052;SDS011;2545;50.892;5.740;2022-08-21T02:35:07;8.07;;;5.93;;
5052;SDS011;2545;50.892;5.740;2022-08-21T02:37:42;9.53;;;5.20;;
5052;SDS011;2545;50.892;5.740;2022-08-21T02:40:12;9.30;;;5.07;;
5052;SDS011;2545;50.892;5.740;2022-08-21T02:42:39;12.03;;;5.33;;
5052;SDS011;2545;50.892;5.740;2022-08-21T02:45:05;11.87;;;4.63;;
5052;SDS011;2545;50.892;5.740;2022-08-21T02:47:31;15.90;;;5.57;;
5052;SDS011;2545;50.892;5.740;2022-08-21T02:49:56;18.30;;;5.80;;
5052;SDS011;2545;50.892;5.740;2022-08-21T02:52:22;20.73;;;7.20;;
5052;SDS011;2545;50.892;5.740;2022-08-21T02:54:48;8.50;;;5.80;;
5052;SDS011;2545;50.892;5.740;2022-08-21T02:57:13;11.30;;;5.77;;
5052;SDS011;2545;50.892;5.740;2022-08-21T02:59:38;12.23;;;5.63;;
5052;SDS011;2545;50.892;5.740;2022-08-21T03:02:05;14.53;;;5.57;;
5052;SDS011;2545;50.892;5.740;2022-08-21T03:04:31;16.87;;;5.80;;
5052;SDS011;2545;50.892;5.740;2022-08-21T03:06:56;17.77;;;5.97;;
5052;SDS011;2545;50.892;5.740;2022-08-21T03:09:22;12.77;;;6.70;;
5052;SDS011;2545;50.892;5.740;2022-08-21T03:11:47;10.10;;;5.43;;
5052;SDS011;2545;50.892;5.740;2022-08-21T03:14:12;14.60;;;6.63;;
5052;SDS011;2545;50.892;5.740;2022-08-21T03:16:38;24.60;;;5.80;;
5052;SDS011;2545;50.892;5.740;2022-08-21T03:19:03;11.40;;;6.33;;
5052;SDS011;2545;50.892;5.740;2022-08-21T03:21:28;12.70;;;5.53;;
5052;SDS011;2545;50.892;5.740;2022-08-21T03:23:53;9.00;;;5.10;;
5052;SDS011;2545;50.892;5.740;2022-08-21T03:26:19;12.97;;;5.60;;
5052;SDS011;2545;50.892;5.740;2022-08-21T03:28:44;13.77;;;6.30;;
5052;SDS011;2545;50.892;5.740;2022-08-21T03:31:10;9.23;;;5.27;;
5052;SDS011;2545;50.892;5.740;2022-08-21T03:33:35;13.43;;;6.53;;
5052;SDS011;2545;50.892;5.740;2022-08-21T03:36:03;11.70;;;6.20;;
5052;SDS011;2545;50.892;5.740;2022-08-21T03:38:31;12.60;;;6.30;;
5052;SDS011;2545;50.892;5.740;2022-08-21T03:40:58;15.53;;;5.67;;
5052;SDS011;2545;50.892;5.740;2022-08-21T03:43:24;11.57;;;5.60;;
5052;SDS011;2545;50.892;5.740;2022-08-21T03:45:49;8.30;;;5.77;;
5052;SDS011;2545;50.892;5.740;2022-08-21T03:48:15;20.17;;;5.63;;
5052;SDS011;2545;50.892;5.740;2022-08-21T03:50:41;25.57;;;6.70;;
5052;SDS011;2545;50.892;5.740;2022-08-21T03:53:08;12.53;;;5.90;;
5052;SDS011;2545;50.892;5.740;2022-08-21T03:55:35;15.27;;;5.20;;
5052;SDS011;2545;50.892;5.740;2022-08-21T03:58:00;14.33;;;5.80;;
5052;SDS011;2545;50.892;5.740;2022-08-21T04:00:26;17.83;;;5.27;;
5052;SDS011;2545;50.892;5.740;2022-08-21T04:02:51;10.37;;;5.13;;
5052;SDS011;2545;50.892;5.740;2022-08-21T04:05:17;21.80;;;6.43;;
5052;SDS011;2545;50.892;5.740;2022-08-21T04:07:52;13.00;;;6.73;;
5052;SDS011;2545;50.892;5.740;2022-08-21T04:10:22;20.17;;;6.23;;
5052;SDS011;2545;50.892;5.740;2022-08-21T04:12:49;25.47;;;6.03;;
5052;SDS011;2545;50.892;5.740;2022-08-21T04:15:14;17.40;;;5.97;;
5052;SDS011;2545;50.892;5.740;2022-08-21T04:17:39;13.83;;;6.30;;
5052;SDS011;2545;50.892;5.740;2022-08-21T04:20:05;26.13;;;6.00;;
5052;SDS011;2545;50.892;5.740;2022-08-21T04:22:30;13.00;;;6.23;;
5052;SDS011;2545;50.892;5.740;2022-08-21T04:24:56;12.40;;;5.53;;
5052;SDS011;2545;50.892;5.740;2022-08-21T04:27:21;15.77;;;5.67;;
5052;SDS011;2545;50.892;5.740;2022-08-21T04:29:46;19.70;;;6.53;;
5052;SDS011;2545;50.892;5.740;2022-08-21T04:32:12;13.53;;;6.37;;
5052;SDS011;2545;50.892;5.740;2022-08-21T04:34:37;20.80;;;6.27;;
5052;SDS011;2545;50.892;5.740;2022-08-21T04:37:02;13.60;;;5.93;;
5052;SDS011;2545;50.892;5.740;2022-08-21T04:39:28;13.53;;;6.90;;
5052;SDS011;2545;50.892;5.740;2022-08-21T04:41:53;16.07;;;6.00;;
5052;SDS011;2545;50.892;5.740;2022-08-21T04:44:19;18.27;;;6.10;;
5052;SDS011;2545;50.892;5.740;2022-08-21T04:46:44;20.43;;;7.40;;
5052;SDS011;2545;50.892;5.740;2022-08-21T04:49:09;12.53;;;5.53;;
5052;SDS011;2545;50.892;5.740;2022-08-21T04:51:35;10.57;;;5.80;;
5052;SDS011;2545;50.892;5.740;2022-08-21T04:56:32;9.20;;;6.40;;
5052;SDS011;2545;50.892;5.740;2022-08-21T04:59:19;11.90;;;6.60;;
5052;SDS011;2545;50.892;5.740;2022-08-21T05:01:48;18.83;;;5.53;;
5052;SDS011;2545;50.892;5.740;2022-08-21T05:04:16;14.10;;;5.83;;
5052;SDS011;2545;50.892;5.740;2022-08-21T05:06:44;10.67;;;5.60;;
5052;SDS011;2545;50.892;5.740;2022-08-21T05:09:12;9.40;;;5.20;;
5052;SDS011;2545;50.892;5.740;2022-08-21T05:11:40;14.43;;;5.80;;
5052;SDS011;2545;50.892;5.740;2022-08-21T05:14:06;12.97;;;5.23;;
5052;SDS011;2545;50.892;5.740;2022-08-21T05:16:32;15.53;;;5.10;;
5052;SDS011;2545;50.892;5.740;2022-08-21T05:18:58;12.03;;;5.80;;
5052;SDS011;2545;50.892;5.740;2022-08-21T05:21:23;9.30;;;5.40;;
5052;SDS011;2545;50.892;5.740;2022-08-21T05:23:48;12.97;;;5.90;;
5052;SDS011;2545;50.892;5.740;2022-08-21T05:26:14;11.20;;;5.33;;
5052;SDS011;2545;50.892;5.740;2022-08-21T05:28:39;12.20;;;5.40;;
5052;SDS011;2545;50.892;5.740;2022-08-21T05:31:04;12.63;;;6.33;;
5052;SDS011;2545;50.892;5.740;2022-08-21T05:33:30;12.97;;;5.20;;
5052;SDS011;2545;50.892;5.740;2022-08-21T05:35:55;18.97;;;5.67;;
5052;SDS011;2545;50.892;5.740;2022-08-21T05:38:21;38.20;;;5.33;;
5052;SDS011;2545;50.892;5.740;2022-08-21T05:40:48;6.93;;;4.93;;
5052;SDS011;2545;50.892;5.740;2022-08-21T05:43:13;12.77;;;4.83;;
5052;SDS011;2545;50.892;5.740;2022-08-21T05:45:39;19.47;;;4.60;;
5052;SDS011;2545;50.892;5.740;2022-08-21T05:48:08;12.77;;;4.63;;
5052;SDS011;2545;50.892;5.740;2022-08-21T05:50:47;10.53;;;5.40;;
5052;SDS011;2545;50.892;5.740;2022-08-21T05:53:15;9.20;;;4.87;;
5052;SDS011;2545;50.892;5.740;2022-08-21T05:55:43;11.00;;;5.30;;
5052;SDS011;2545;50.892;5.740;2022-08-21T05:58:09;19.20;;;4.80;;
5052;SDS011;2545;50.892;5.740;2022-08-21T06:00:34;10.30;;;5.10;;
5052;SDS011;2545;50.892;5.740;2022-08-21T06:02:59;18.53;;;5.53;;
5052;SDS011;2545;50.892;5.740;2022-08-21T06:05:25;16.23;;;4.77;;
5052;SDS011;2545;50.892;5.740;2022-08-21T06:07:51;13.90;;;4.93;;
5052;SDS011;2545;50.892;5.740;2022-08-21T06:10:17;8.03;;;4.83;;
5052;SDS011;2545;50.892;5.740;2022-08-21T06:12:42;12.70;;;4.63;;
5052;SDS011;2545;50.892;5.740;2022-08-21T06:15:08;12.37;;;5.00;;
5052;SDS011;2545;50.892;5.740;2022-08-21T06:17:34;11.10;;;4.63;;
5052;SDS011;2545;50.892;5.740;2022-08-21T06:19:59;16.37;;;4.80;;
5052;SDS011;2545;50.892;5.740;2022-08-21T06:22:24;11.63;;;4.70;;
5052;SDS011;2545;50.892;5.740;2022-08-21T06:24:50;12.00;;;4.83;;
5052;SDS011;2545;50.892;5.740;2022-08-21T06:27:15;12.40;;;4.97;;
5052;SDS011;2545;50.892;5.740;2022-08-21T06:29:42;15.30;;;5.60;;
5052;SDS011;2545;50.892;5.740;2022-08-21T06:32:10;20.23;;;5.30;;
5052;SDS011;2545;50.892;5.740;2022-08-21T06:34:37;19.00;;;4.80;;
5052;SDS011;2545;50.892;5.740;2022-08-21T06:37:03;11.30;;;5.30;;
5052;SDS011;2545;50.892;5.740;2022-08-21T06:39:29;10.63;;;4.47;;
5052;SDS011;2545;50.892;5.740;2022-08-21T06:41:54;16.80;;;5.20;;
5052;SDS011;2545;50.892;5.740;2022-08-21T06:44:20;7.90;;;4.50;;
5052;SDS011;2545;50.892;5.740;2022-08-21T06:46:45;14.53;;;4.47;;
5052;SDS011;2545;50.892;5.740;2022-08-21T06:49:10;9.57;;;4.63;;
5052;SDS011;2545;50.892;5.740;2022-08-21T06:51:36;25.07;;;5.43;;
5052;SDS011;2545;50.892;5.740;2022-08-21T06:54:01;11.17;;;4.17;;
5052;SDS011;2545;50.892;5.740;2022-08-21T06:56:26;15.50;;;4.87;;
5052;SDS011;2545;50.892;5.740;2022-08-21T06:58:52;13.10;;;5.07;;
5052;SDS011;2545;50.892;5.740;2022-08-21T07:01:17;12.10;;;4.20;;
5052;SDS011;2545;50.892;5.740;2022-08-21T07:03:45;8.70;;;4.83;;
5052;SDS011;2545;50.892;5.740;2022-08-21T07:06:10;14.07;;;4.70;;
5052;SDS011;2545;50.892;5.740;2022-08-21T07:08:37;13.10;;;4.70;;
5052;SDS011;2545;50.892;5.740;2022-08-21T07:11:03;7.90;;;4.07;;
5052;SDS011;2545;50.892;5.740;2022-08-21T07:13:32;10.33;;;4.60;;
5052;SDS011;2545;50.892;5.740;2022-08-21T07:15:58;8.67;;;4.43;;
5052;SDS011;2545;50.892;5.740;2022-08-21T07:18:24;14.73;;;5.07;;
5052;SDS011;2545;50.892;5.740;2022-08-21T07:20:50;19.13;;;8.97;;
5052;SDS011;2545;50.892;5.740;2022-08-21T07:23:26;10.33;;;4.27;;
5052;SDS011;2545;50.892;5.740;2022-08-21T07:25:55;13.70;;;3.33;;
5052;SDS011;2545;50.892;5.740;2022-08-21T07:28:20;15.63;;;4.03;;
5052;SDS011;2545;50.892;5.740;2022-08-21T07:30:46;10.73;;;2.93;;
5052;SDS011;2545;50.892;5.740;2022-08-21T07:33:16;6.90;;;2.97;;
5052;SDS011;2545;50.892;5.740;2022-08-21T07:35:41;8.23;;;3.03;;
5052;SDS011;2545;50.892;5.740;2022-08-21T07:38:07;9.57;;;3.37;;
5052;SDS011;2545;50.892;5.740;2022-08-21T07:40:32;11.17;;;3.20;;
5052;SDS011;2545;50.892;5.740;2022-08-21T07:42:57;7.03;;;2.60;;
5052;SDS011;2545;50.892;5.740;2022-08-21T07:45:23;11.13;;;2.53;;
5052;SDS011;2545;50.892;5.740;2022-08-21T07:47:49;9.30;;;2.67;;
5052;SDS011;2545;50.892;5.740;2022-08-21T07:50:15;9.83;;;2.57;;
5052;SDS011;2545;50.892;5.740;2022-08-21T07:52:40;12.47;;;2.97;;
5052;SDS011;2545;50.892;5.740;2022-08-21T07:55:07;5.07;;;2.50;;
5052;SDS011;2545;50.892;5.740;2022-08-21T07:57:33;8.03;;;2.57;;
5052;SDS011;2545;50.892;5.740;2022-08-21T07:59:59;7.20;;;2.10;;
5052;SDS011;2545;50.892;5.740;2022-08-21T08:02:25;7.43;;;2.10;;
5052;SDS011;2545;50.892;5.740;2022-08-21T08:04:52;8.60;;;2.83;;
5052;SDS011;2545;50.892;5.740;2022-08-21T08:07:17;5.37;;;2.30;;
5052;SDS011;2545;50.892;5.740;2022-08-21T08:09:43;7.17;;;2.63;;
5052;SDS011;2545;50.892;5.740;2022-08-21T08:12:08;12.77;;;3.00;;
5052;SDS011;2545;50.892;5.740;2022-08-21T08:14:34;7.47;;;2.30;;
5052;SDS011;2545;50.892;5.740;2022-08-21T08:17:00;8.63;;;1.90;;
5052;SDS011;2545;50.892;5.740;2022-08-21T08:19:27;5.10;;;2.27;;
5052;SDS011;2545;50.892;5.740;2022-08-21T08:21:52;5.03;;;2.37;;
5052;SDS011;2545;50.892;5.740;2022-08-21T08:24:18;6.20;;;2.20;;
5052;SDS011;2545;50.892;5.740;2022-08-21T08:26:43;4.27;;;2.10;;
5052;SDS011;2545;50.892;5.740;2022-08-21T08:29:08;3.93;;;2.13;;
5052;SDS011;2545;50.892;5.740;2022-08-21T08:31:34;8.90;;;2.30;;
5052;SDS011;2545;50.892;5.740;2022-08-21T08:33:59;6.43;;;2.47;;
5052;SDS011;2545;50.892;5.740;2022-08-21T08:36:31;3.67;;;1.70;;
5052;SDS011;2545;50.892;5.740;2022-08-21T08:39:00;4.37;;;2.07;;
5052;SDS011;2545;50.892;5.740;2022-08-21T08:41:27;8.60;;;2.13;;
5052;SDS011;2545;50.892;5.740;2022-08-21T08:43:56;4.60;;;1.97;;
5052;SDS011;2545;50.892;5.740;2022-08-21T08:46:40;7.40;;;1.83;;
5052;SDS011;2545;50.892;5.740;2022-08-21T08:49:15;4.17;;;2.23;;
5052;SDS011;2545;50.892;5.740;2022-08-21T08:51:55;3.10;;;1.60;;
5052;SDS011;2545;50.892;5.740;2022-08-21T08:54:30;6.70;;;2.00;;
5052;SDS011;2545;50.892;5.740;2022-08-21T08:57:00;6.50;;;1.73;;
5052;SDS011;2545;50.892;5.740;2022-08-21T08:59:37;5.17;;;2.40;;
5052;SDS011;2545;50.892;5.740;2022-08-21T09:02:05;4.40;;;1.77;;
5052;SDS011;2545;50.892;5.740;2022-08-21T09:04:32;5.23;;;2.20;;
5052;SDS011;2545;50.892;5.740;2022-08-21T09:07:01;5.33;;;2.10;;
5052;SDS011;2545;50.892;5.740;2022-08-21T09:09:40;13.47;;;2.40;;
5052;SDS011;2545;50.892;5.740;2022-08-21T09:12:31;3.80;;;1.60;;
5052;SDS011;2545;50.892;5.740;2022-08-21T09:20:31;9.40;;;2.70;;
5052;SDS011;2545;50.892;5.740;2022-08-21T09:26:17;8.40;;;2.37;;
5052;SDS011;2545;50.892;5.740;2022-08-21T09:28:45;7.23;;;2.10;;
5052;SDS011;2545;50.892;5.740;2022-08-21T09:34:01;5.27;;;1.80;;
5052;SDS011;2545;50.892;5.740;2022-08-21T09:36:44;6.23;;;2.20;;
5052;SDS011;2545;50.892;5.740;2022-08-21T09:39:23;11.70;;;2.30;;
5052;SDS011;2545;50.892;5.740;2022-08-21T09:41:55;7.30;;;2.53;;
5052;SDS011;2545;50.892;5.740;2022-08-21T09:44:27;13.50;;;3.30;;
5052;SDS011;2545;50.892;5.740;2022-08-21T09:46:54;8.23;;;2.70;;
5052;SDS011;2545;50.892;5.740;2022-08-21T09:49:53;4.70;;;2.47;;
5052;SDS011;2545;50.892;5.740;2022-08-21T09:52:21;6.90;;;2.10;;
5052;SDS011;2545;50.892;5.740;2022-08-21T09:54:51;5.87;;;2.20;;
5052;SDS011;2545;50.892;5.740;2022-08-21T09:57:21;5.00;;;1.90;;
5052;SDS011;2545;50.892;5.740;2022-08-21T10:00:19;14.40;;;2.53;;
5052;SDS011;2545;50.892;5.740;2022-08-21T10:02:44;6.50;;;2.50;;
5052;SDS011;2545;50.892;5.740;2022-08-21T10:05:20;8.40;;;2.60;;
5052;SDS011;2545;50.892;5.740;2022-08-21T10:07:48;5.03;;;2.30;;
5052;SDS011;2545;50.892;5.740;2022-08-21T10:10:16;4.90;;;2.00;;
5052;SDS011;2545;50.892;5.740;2022-08-21T10:26:05;7.27;;;2.43;;
5052;SDS011;2545;50.892;5.740;2022-08-21T10:28:42;9.57;;;3.13;;
5052;SDS011;2545;50.892;5.740;2022-08-21T10:33:53;9.33;;;2.33;;
5052;SDS011;2545;50.892;5.740;2022-08-21T10:36:26;6.63;;;2.10;;
5052;SDS011;2545;50.892;5.740;2022-08-21T10:44:43;4.97;;;1.87;;
5052;SDS011;2545;50.892;5.740;2022-08-21T10:55:39;6.40;;;2.37;;
5052;SDS011;2545;50.892;5.740;2022-08-21T10:58:09;8.33;;;2.63;;
5052;SDS011;2545;50.892;5.740;2022-08-21T11:06:00;6.87;;;2.13;;
5052;SDS011;2545;50.892;5.740;2022-08-21T11:08:33;5.03;;;1.90;;
5052;SDS011;2545;50.892;5.740;2022-08-21T11:11:20;6.30;;;2.47;;
5052;SDS011;2545;50.892;5.740;2022-08-21T11:13:53;6.90;;;2.17;;
5052;SDS011;2545;50.892;5.740;2022-08-21T11:16:25;7.50;;;2.80;;
5052;SDS011;2545;50.892;5.740;2022-08-21T11:19:00;5.57;;;2.20;;
5052;SDS011;2545;50.892;5.740;2022-08-21T11:26:49;6.17;;;2.30;;
5052;SDS011;2545;50.892;5.740;2022-08-21T11:29:31;3.57;;;1.80;;
5052;SDS011;2545;50.892;5.740;2022-08-21T11:32:23;4.27;;;1.90;;
5052;SDS011;2545;50.892;5.740;2022-08-21T11:37:57;6.37;;;2.10;;
5052;SDS011;2545;50.892;5.740;2022-08-21T11:40:51;9.83;;;2.10;;
5052;SDS011;2545;50.892;5.740;2022-08-21T11:43:42;6.87;;;1.67;;
5052;SDS011;2545;50.892;5.740;2022-08-21T11:46:44;6.40;;;2.20;;
5052;SDS011;2545;50.892;5.740;2022-08-21T11:51:55;4.70;;;1.77;;
5052;SDS011;2545;50.892;5.740;2022-08-21T11:57:32;7.80;;;1.70;;
5052;SDS011;2545;50.892;5.740;2022-08-21T12:02:39;6.77;;;2.27;;
5052;SDS011;2545;50.892;5.740;2022-08-21T12:05:11;9.77;;;2.17;;
5052;SDS011;2545;50.892;5.740;2022-08-21T12:07:59;3.30;;;1.80;;
5052;SDS011;2545;50.892;5.740;2022-08-21T12:10:35;4.70;;;1.60;;
5052;SDS011;2545;50.892;5.740;2022-08-21T12:13:26;6.13;;;1.87;;
5052;SDS011;2545;50.892;5.740;2022-08-21T12:16:11;3.70;;;1.90;;
5052;SDS011;2545;50.892;5.740;2022-08-21T12:18:39;4.57;;;1.73;;
5052;SDS011;2545;50.892;5.740;2022-08-21T12:21:25;7.13;;;1.70;;
5052;SDS011;2545;50.892;5.740;2022-08-21T12:23:59;7.27;;;2.13;;
5052;SDS011;2545;50.892;5.740;2022-08-21T12:26:33;5.70;;;1.90;;
5052;SDS011;2545;50.892;5.740;2022-08-21T12:29:38;3.87;;;1.73;;
5052;SDS011;2545;50.892;5.740;2022-08-21T12:32:04;3.77;;;2.17;;
5052;SDS011;2545;50.892;5.740;2022-08-21T12:40:36;5.23;;;1.77;;
5052;SDS011;2545;50.892;5.740;2022-08-21T12:43:03;3.30;;;1.97;;
5052;SDS011;2545;50.892;5.740;2022-08-21T12:45:43;10.00;;;2.10;;
5052;SDS011;2545;50.892;5.740;2022-08-21T12:48:18;6.10;;;2.10;;
5052;SDS011;2545;50.892;5.740;2022-08-21T12:50:49;6.60;;;2.07;;
5052;SDS011;2545;50.892;5.740;2022-08-21T12:55:57;6.23;;;1.97;;
5052;SDS011;2545;50.892;5.740;2022-08-21T12:58:28;6.23;;;2.27;;
5052;SDS011;2545;50.892;5.740;2022-08-21T13:01:05;11.40;;;2.27;;
5052;SDS011;2545;50.892;5.740;2022-08-21T13:03:37;4.37;;;2.03;;
5052;SDS011;2545;50.892;5.740;2022-08-21T13:06:04;6.37;;;2.37;;
5052;SDS011;2545;50.892;5.740;2022-08-21T13:08:30;10.90;;;2.73;;
5052;SDS011;2545;50.892;5.740;2022-08-21T13:11:00;5.93;;;1.97;;
5052;SDS011;2545;50.892;5.740;2022-08-21T13:13:29;5.97;;;2.10;;
5052;SDS011;2545;50.892;5.740;2022-08-21T13:15:59;9.90;;;3.07;;
5052;SDS011;2545;50.892;5.740;2022-08-21T13:18:29;8.20;;;2.43;;
5052;SDS011;2545;50.892;5.740;2022-08-21T13:21:11;5.93;;;2.20;;
5052;SDS011;2545;50.892;5.740;2022-08-21T13:23:38;6.93;;;2.80;;
5052;SDS011;2545;50.892;5.740;2022-08-21T13:26:14;7.50;;;2.50;;
5052;SDS011;2545;50.892;5.740;2022-08-21T13:28:42;6.30;;;2.30;;
5052;SDS011;2545;50.892;5.740;2022-08-21T13:31:12;6.27;;;2.63;;
5052;SDS011;2545;50.892;5.740;2022-08-21T13:33:38;6.00;;;2.50;;
5052;SDS011;2545;50.892;5.740;2022-08-21T13:36:10;9.83;;;2.87;;
5052;SDS011;2545;50.892;5.740;2022-08-21T13:38:39;5.47;;;2.43;;
5052;SDS011;2545;50.892;5.740;2022-08-21T13:43:44;7.10;;;2.20;;
5052;SDS011;2545;50.892;5.740;2022-08-21T13:46:12;7.80;;;3.40;;
5052;SDS011;2545;50.892;5.740;2022-08-21T13:48:39;14.27;;;3.20;;
5052;SDS011;2545;50.892;5.740;2022-08-21T13:51:06;9.27;;;2.23;;
5052;SDS011;2545;50.892;5.740;2022-08-21T13:56:06;7.10;;;2.50;;
5052;SDS011;2545;50.892;5.740;2022-08-21T14:00:56;7.33;;;2.90;;
5052;SDS011;2545;50.892;5.740;2022-08-21T14:03:41;8.83;;;2.83;;
5052;SDS011;2545;50.892;5.740;2022-08-21T14:06:11;6.07;;;2.20;;
5052;SDS011;2545;50.892;5.740;2022-08-21T14:08:39;4.60;;;1.90;;
5052;SDS011;2545;50.892;5.740;2022-08-21T14:11:09;8.73;;;2.10;;
5052;SDS011;2545;50.892;5.740;2022-08-21T14:13:38;5.83;;;2.03;;
5052;SDS011;2545;50.892;5.740;2022-08-21T14:16:11;2.80;;;1.83;;
5052;SDS011;2545;50.892;5.740;2022-08-21T14:19:07;6.30;;;2.10;;
5052;SDS011;2545;50.892;5.740;2022-08-21T14:21:32;5.00;;;1.80;;
5052;SDS011;2545;50.892;5.740;2022-08-21T14:24:13;6.33;;;2.20;;
5052;SDS011;2545;50.892;5.740;2022-08-21T14:26:51;12.73;;;2.25;;
5052;SDS011;2545;50.892;5.740;2022-08-21T14:29:19;5.70;;;2.35;;
5052;SDS011;2545;50.892;5.740;2022-08-21T14:31:55;9.65;;;1.60;;
5052;SDS011;2545;50.892;5.740;2022-08-21T14:34:24;6.03;;;1.98;;
5052;SDS011;2545;50.892;5.740;2022-08-21T14:36:51;8.02;;;1.77;;
5052;SDS011;2545;50.892;5.740;2022-08-21T14:39:16;5.63;;;1.90;;
5052;SDS011;2545;50.892;5.740;2022-08-21T14:41:43;4.43;;;2.08;;
5052;SDS011;2545;50.892;5.740;2022-08-21T14:44:11;8.37;;;2.10;;
5052;SDS011;2545;50.892;5.740;2022-08-21T14:46:37;6.13;;;2.17;;
5052;SDS011;2545;50.892;5.740;2022-08-21T14:49:03;8.70;;;1.90;;
5052;SDS011;2545;50.892;5.740;2022-08-21T14:51:29;12.17;;;2.93;;
5052;SDS011;2545;50.892;5.740;2022-08-21T14:53:54;4.17;;;2.03;;
5052;SDS011;2545;50.892;5.740;2022-08-21T14:56:19;10.13;;;2.10;;
5052;SDS011;2545;50.892;5.740;2022-08-21T14:58:46;3.80;;;1.90;;
5052;SDS011;2545;50.892;5.740;2022-08-21T15:01:14;7.93;;;2.90;;
5052;SDS011;2545;50.892;5.740;2022-08-21T15:03:43;7.50;;;2.30;;
5052;SDS011;2545;50.892;5.740;2022-08-21T15:06:11;7.70;;;2.83;;
5052;SDS011;2545;50.892;5.740;2022-08-21T15:08:37;7.23;;;2.20;;
5052;SDS011;2545;50.892;5.740;2022-08-21T15:11:03;8.87;;;2.90;;
5052;SDS011;2545;50.892;5.740;2022-08-21T15:13:30;7.37;;;2.20;;
5052;SDS011;2545;50.892;5.740;2022-08-21T15:15:57;8.67;;;3.20;;
5052;SDS011;2545;50.892;5.740;2022-08-21T15:18:24;5.73;;;2.57;;
5052;SDS011;2545;50.892;5.740;2022-08-21T15:20:50;9.77;;;2.30;;
5052;SDS011;2545;50.892;5.740;2022-08-21T15:23:16;12.30;;;2.70;;
5052;SDS011;2545;50.892;5.740;2022-08-21T15:25:43;10.37;;;3.37;;
5052;SDS011;2545;50.892;5.740;2022-08-21T15:28:10;8.53;;;2.80;;
5052;SDS011;2545;50.892;5.740;2022-08-21T15:30:36;7.57;;;2.57;;
5052;SDS011;2545;50.892;5.740;2022-08-21T15:33:03;5.47;;;2.30;;
5052;SDS011;2545;50.892;5.740;2022-08-21T15:35:29;9.00;;;2.33;;
5052;SDS011;2545;50.892;5.740;2022-08-21T15:37:54;22.70;;;2.90;;
5052;SDS011;2545;50.892;5.740;2022-08-21T15:40:20;10.37;;;2.67;;
5052;SDS011;2545;50.892;5.740;2022-08-21T15:42:45;9.30;;;3.07;;
5052;SDS011;2545;50.892;5.740;2022-08-21T15:45:12;9.50;;;2.33;;
5052;SDS011;2545;50.892;5.740;2022-08-21T15:47:38;5.37;;;2.40;;
5052;SDS011;2545;50.892;5.740;2022-08-21T15:50:08;12.37;;;2.50;;
5052;SDS011;2545;50.892;5.740;2022-08-21T15:52:34;10.67;;;2.43;;
5052;SDS011;2545;50.892;5.740;2022-08-21T15:55:00;7.40;;;2.03;;
5052;SDS011;2545;50.892;5.740;2022-08-21T15:57:25;7.40;;;2.30;;
5052;SDS011;2545;50.892;5.740;2022-08-21T15:59:52;7.63;;;2.70;;
5052;SDS011;2545;50.892;5.740;2022-08-21T16:02:24;10.90;;;2.50;;
5052;SDS011;2545;50.892;5.740;2022-08-21T16:04:52;10.80;;;2.10;;
5052;SDS011;2545;50.892;5.740;2022-08-21T16:07:18;7.17;;;2.30;;
5052;SDS011;2545;50.892;5.740;2022-08-21T16:09:43;7.43;;;2.10;;
5052;SDS011;2545;50.892;5.740;2022-08-21T16:12:09;5.73;;;2.00;;
5052;SDS011;2545;50.892;5.740;2022-08-21T16:14:39;12.80;;;3.10;;
5052;SDS011;2545;50.892;5.740;2022-08-21T16:17:05;8.93;;;2.47;;
5052;SDS011;2545;50.892;5.740;2022-08-21T16:19:31;8.53;;;2.90;;
5052;SDS011;2545;50.892;5.740;2022-08-21T16:21:57;11.53;;;2.77;;
5052;SDS011;2545;50.892;5.740;2022-08-21T16:24:23;3.43;;;1.67;;
5052;SDS011;2545;50.892;5.740;2022-08-21T16:26:48;10.20;;;2.67;;
5052;SDS011;2545;50.892;5.740;2022-08-21T16:29:14;11.73;;;2.90;;
5052;SDS011;2545;50.892;5.740;2022-08-21T16:31:40;11.60;;;2.70;;
5052;SDS011;2545;50.892;5.740;2022-08-21T16:34:06;14.73;;;2.70;;
5052;SDS011;2545;50.892;5.740;2022-08-21T16:36:34;9.50;;;2.13;;
5052;SDS011;2545;50.892;5.740;2022-08-21T16:38:59;13.13;;;2.83;;